createdAt,value
2022-10-01T00:00:37.269Z,4.85
2022-10-01T00:04:49.624Z,4.93
2022-10-01T00:09:02.004Z,4.75
2022-10-01T00:13:14.323Z,5.95
2022-10-01T00:17:27.035Z,5.60
2022-10-01T00:21:39.359Z,5.20
2022-10-01T00:25:54.198Z,9.38
2022-10-01T00:30:07.795Z,8.38
2022-10-01T00:34:20.560Z,8.55
2022-10-01T00:38:33.128Z,10.38
2022-10-01T00:42:45.552Z,9.18
2022-10-01T00:47:02.998Z,10.88
2022-10-01T00:51:15.748Z,10.45
2022-10-01T00:55:40.677Z,10.18
2022-10-01T00:59:55.407Z,12.18
2022-10-01T01:04:17.049Z,13.15
2022-10-01T01:08:30.308Z,14.57
2022-10-01T01:13:13.580Z,12.50
2022-10-01T01:17:41.365Z,11.05
2022-10-01T01:22:04.147Z,11.48
2022-10-01T01:26:17.097Z,12.75
2022-10-01T01:30:33.294Z,12.82
2022-10-01T01:34:49.671Z,11.32
2022-10-01T01:39:07.888Z,11.50
2022-10-01T01:43:25.598Z,11.03
2022-10-01T01:47:42.936Z,12.05
2022-10-01T01:52:05.088Z,10.75
2022-10-01T01:56:18.071Z,11.57
2022-10-01T02:00:30.787Z,10.18
2022-10-01T02:04:52.712Z,13.15
2022-10-01T02:09:31.521Z,12.65
2022-10-01T02:13:49.361Z,10.45
2022-10-01T02:18:24.003Z,10.10
2022-10-01T02:23:00.108Z,11.75
2022-10-01T02:27:25.635Z,11.15
2022-10-01T02:31:38.850Z,10.52
2022-10-01T02:35:54.422Z,13.00
2022-10-01T02:40:11.991Z,11.82
2022-10-01T02:44:38.601Z,10.82
2022-10-01T02:48:52.091Z,9.25
2022-10-01T02:53:11.674Z,14.38
2022-10-01T02:57:25.576Z,8.73
2022-10-01T03:01:38.428Z,10.85
2022-10-01T03:05:51.032Z,9.57
2022-10-01T03:10:06.708Z,11.18
2022-10-01T03:14:19.836Z,9.98
2022-10-01T03:18:32.162Z,10.60
2022-10-01T03:22:48.689Z,8.50
2022-10-01T03:27:01.502Z,9.23
2022-10-01T03:31:13.956Z,9.65
2022-10-01T03:35:26.544Z,8.98
2022-10-01T03:39:38.885Z,9.57
2022-10-01T03:43:57.156Z,11.20
2022-10-01T03:48:12.782Z,7.78
2022-10-01T03:52:25.180Z,9.85
2022-10-01T03:56:38.600Z,7.43
2022-10-01T04:00:51.343Z,6.65
2022-10-01T04:05:03.962Z,8.20
2022-10-01T04:09:16.275Z,8.00
2022-10-01T04:13:30.741Z,7.93
2022-10-01T04:17:45.986Z,8.93
2022-10-01T04:21:58.584Z,7.25
2022-10-01T04:26:11.080Z,8.27
2022-10-01T04:30:23.778Z,8.05
2022-10-01T04:34:53.995Z,8.10
2022-10-01T04:39:06.328Z,8.60
2022-10-01T04:43:18.680Z,8.50
2022-10-01T04:47:33.565Z,7.28
2022-10-01T04:51:49.357Z,8.40
2022-10-01T04:56:02.220Z,7.28
2022-10-01T05:00:20.963Z,7.25
2022-10-01T05:04:33.284Z,5.67
2022-10-01T05:08:45.755Z,11.82
2022-10-01T05:13:02.044Z,6.38
2022-10-01T05:17:18.056Z,11.90
2022-10-01T05:21:30.481Z,5.25
2022-10-01T05:25:43.586Z,6.40
2022-10-01T05:29:57.040Z,5.38
2022-10-01T05:34:09.389Z,6.25
2022-10-01T05:38:21.837Z,5.93
2022-10-01T05:42:34.408Z,7.10
2022-10-01T05:46:46.759Z,5.75
2022-10-01T05:50:59.519Z,5.47
2022-10-01T05:55:12.338Z,6.68
2022-10-01T05:59:29.664Z,7.32
2022-10-01T06:03:45.025Z,4.57
2022-10-01T06:07:57.759Z,5.10
2022-10-01T06:12:10.575Z,5.05
2022-10-01T06:16:22.975Z,4.40
2022-10-01T06:20:36.504Z,4.95
2022-10-01T06:24:49.114Z,5.18
2022-10-01T06:29:01.568Z,6.32
2022-10-01T06:33:17.324Z,7.50
2022-10-01T06:37:29.813Z,5.18
2022-10-01T06:41:44.281Z,6.95
2022-10-01T06:46:01.951Z,9.18
2022-10-01T06:50:14.455Z,5.18
2022-10-01T06:54:28.124Z,6.88
2022-10-01T06:58:40.441Z,5.32
2022-10-01T07:02:56.380Z,4.95
2022-10-01T07:07:08.891Z,4.85
2022-10-01T07:11:21.228Z,6.25
2022-10-01T07:15:33.778Z,5.93
2022-10-01T07:19:46.144Z,4.40
2022-10-01T07:23:58.611Z,5.55
2022-10-01T07:28:17.061Z,4.70
2022-10-01T07:32:32.385Z,7.27
2022-10-01T07:36:46.013Z,4.82
2022-10-01T07:40:59.765Z,3.47
2022-10-01T07:45:12.232Z,3.47
2022-10-01T07:49:26.023Z,5.43
2022-10-01T07:53:38.347Z,3.55
2022-10-01T07:57:55.021Z,2.10
2022-10-01T08:02:15.639Z,2.42
2022-10-01T08:06:28.184Z,4.43
2022-10-01T08:10:42.071Z,1.90
2022-10-01T08:14:54.589Z,1.88
2022-10-01T08:19:10.509Z,1.98
2022-10-01T08:23:22.854Z,1.80
2022-10-01T08:27:38.442Z,1.73
2022-10-01T08:31:51.003Z,2.08
2022-10-01T08:36:05.802Z,2.35
2022-10-01T08:40:21.160Z,1.92
2022-10-01T08:44:41.188Z,1.80
2022-10-01T08:49:17.239Z,1.55
2022-10-01T08:53:39.172Z,1.10
2022-10-01T08:57:59.471Z,3.22
2022-10-01T09:02:28.348Z,2.08
2022-10-01T09:06:41.257Z,1.48
2022-10-01T09:11:07.289Z,1.30
2022-10-01T09:15:45.783Z,1.30
2022-10-01T09:20:28.289Z,1.50
2022-10-01T09:24:55.455Z,1.20
2022-10-01T09:29:15.111Z,0.95
2022-10-01T09:33:34.011Z,1.05
2022-10-01T09:37:54.496Z,1.08
2022-10-01T09:42:07.468Z,0.80
2022-10-01T09:46:20.928Z,1.38
2022-10-01T09:50:43.996Z,1.20
2022-10-01T09:55:22.889Z,1.10
2022-10-01T09:59:51.126Z,1.15
2022-10-01T10:04:03.481Z,2.20
2022-10-01T10:08:34.248Z,1.15
2022-10-01T10:12:47.643Z,0.98
2022-10-01T10:17:06.771Z,1.10
2022-10-01T10:21:23.085Z,1.40
2022-10-01T10:25:36.000Z,1.80
2022-10-01T10:29:48.399Z,1.27
2022-10-01T10:34:20.164Z,1.35
2022-10-01T10:38:35.046Z,1.38
2022-10-01T10:42:58.321Z,1.77
2022-10-01T10:47:15.620Z,3.13
2022-10-01T10:51:29.041Z,1.60
2022-10-01T10:55:41.867Z,2.65
2022-10-01T11:00:01.237Z,1.98
2022-10-01T11:04:42.542Z,2.03
2022-10-01T11:09:05.625Z,1.90
2022-10-01T11:13:33.512Z,1.92
2022-10-01T11:17:56.096Z,2.25
2022-10-01T11:22:31.360Z,3.15
2022-10-01T11:27:07.715Z,2.00
2022-10-01T11:31:29.111Z,2.50
2022-10-01T11:35:56.097Z,1.70
2022-10-01T11:40:34.224Z,2.20
2022-10-01T11:45:05.284Z,1.88
2022-10-01T11:49:20.817Z,1.90
2022-10-01T11:53:39.998Z,1.67
2022-10-01T11:58:18.460Z,2.70
2022-10-01T12:02:42.466Z,1.53
2022-10-01T12:07:27.559Z,1.52
2022-10-01T12:11:48.669Z,1.83
2022-10-01T12:16:26.219Z,1.85
2022-10-01T12:20:51.246Z,1.60
2022-10-01T12:25:03.976Z,1.25
2022-10-01T12:29:38.075Z,4.22
2022-10-01T12:34:32.304Z,1.52
2022-10-01T12:38:58.351Z,1.85
2022-10-01T12:43:20.104Z,2.20
2022-10-01T12:48:17.188Z,2.10
2022-10-01T12:52:42.542Z,1.90
2022-10-01T12:57:14.950Z,2.25
2022-10-01T13:02:19.512Z,1.60
2022-10-01T13:06:44.013Z,1.95
2022-10-01T13:11:38.210Z,1.08
2022-10-01T13:15:59.737Z,1.40
2022-10-01T13:20:31.087Z,1.50
2022-10-01T13:24:51.801Z,1.30
2022-10-01T13:29:25.865Z,1.67
2022-10-01T13:33:38.206Z,1.00
2022-10-01T13:37:51.069Z,1.63
2022-10-01T13:42:06.049Z,2.97
2022-10-01T13:46:18.931Z,1.45
2022-10-01T13:50:31.701Z,2.45
2022-10-01T13:54:51.331Z,1.45
2022-10-01T13:59:26.704Z,0.98
2022-10-01T14:04:10.137Z,3.15
2022-10-01T14:08:41.530Z,2.90
2022-10-01T14:13:21.725Z,1.50
2022-10-01T14:17:36.639Z,0.90
2022-10-01T14:22:03.182Z,0.80
2022-10-01T14:26:29.955Z,0.60
2022-10-01T14:30:47.145Z,0.80
2022-10-01T14:35:08.250Z,0.63
2022-10-01T14:39:26.712Z,0.70
2022-10-01T14:43:40.388Z,1.60
2022-10-01T14:48:04.258Z,0.82
2022-10-01T14:52:33.012Z,1.00
2022-10-01T14:56:45.889Z,0.88
2022-10-01T15:00:59.740Z,1.27
2022-10-01T15:05:24.144Z,0.73
2022-10-01T15:09:36.649Z,0.70
2022-10-01T15:13:51.964Z,0.80
2022-10-01T15:18:05.500Z,0.70
2022-10-01T15:22:18.104Z,1.08
2022-10-01T15:26:33.306Z,0.80
2022-10-01T15:30:46.292Z,0.82
2022-10-01T15:35:02.851Z,0.93
2022-10-01T15:39:40.410Z,0.93
2022-10-01T15:43:52.966Z,0.80
2022-10-01T15:48:05.269Z,1.35
2022-10-01T15:52:36.623Z,1.25
2022-10-01T15:56:49.973Z,0.80
2022-10-01T16:01:06.680Z,0.93
2022-10-01T16:05:23.336Z,1.20
2022-10-01T16:09:35.772Z,1.10
2022-10-01T16:14:00.907Z,1.10
2022-10-01T16:18:23.195Z,0.82
2022-10-01T16:22:38.323Z,2.50
2022-10-01T16:26:53.070Z,0.77
2022-10-01T16:31:05.609Z,1.00
2022-10-01T16:35:29.375Z,1.30
2022-10-01T16:39:41.855Z,1.05
2022-10-01T16:43:57.004Z,0.98
2022-10-01T16:48:20.621Z,0.93
2022-10-01T16:52:33.087Z,0.98
2022-10-01T16:56:45.760Z,0.70
2022-10-01T17:00:58.213Z,0.90
2022-10-01T17:05:18.939Z,1.92
2022-10-01T17:09:32.004Z,1.48
2022-10-01T17:13:44.463Z,1.15
2022-10-01T17:17:58.417Z,0.90
2022-10-01T17:22:10.801Z,2.28
2022-10-01T17:26:23.458Z,0.85
2022-10-01T17:30:41.331Z,0.93
2022-10-01T17:34:55.238Z,0.88
2022-10-01T17:39:07.886Z,1.42
2022-10-01T17:43:20.404Z,0.93
2022-10-01T17:51:32.184Z,0.75
2022-10-01T17:56:59.494Z,0.90
2022-10-01T18:01:14.291Z,0.73
2022-10-01T18:05:27.431Z,0.63
2022-10-01T18:09:41.172Z,1.00
2022-10-01T18:13:53.978Z,0.60
2022-10-01T18:22:39.358Z,0.73
2022-10-01T18:26:51.797Z,0.60
2022-10-01T18:31:13.425Z,0.95
2022-10-01T18:35:33.959Z,1.05
2022-10-01T18:39:54.196Z,0.80
2022-10-01T18:44:20.422Z,0.70
2022-10-01T18:48:35.999Z,0.90
2022-10-01T18:53:48.500Z,0.80
2022-10-01T18:58:34.486Z,1.83
2022-10-01T19:03:09.526Z,2.42
2022-10-01T19:07:39.173Z,0.90
2022-10-01T19:12:09.026Z,0.63
2022-10-01T19:16:34.028Z,0.68
2022-10-01T19:20:54.855Z,0.70
2022-10-01T19:25:28.224Z,0.75
2022-10-01T19:30:03.424Z,0.73
2022-10-01T19:34:39.929Z,0.88
2022-10-01T19:38:56.464Z,0.70
2022-10-01T19:43:08.676Z,0.60
2022-10-01T19:47:30.239Z,1.98
2022-10-01T19:52:02.876Z,0.80
